Lima Center, Michigan
Current Conditions -  °F | °C
As of 7:53 AM on Thursday 27 Nov 2014 (Local Time) from KARB Reporting Station
Overcast Overcast  
Wind Chill: 20°   Ceiling: 2700
Heat Index: 28°   Visibility: 10mi
Dew Point: 19°   Wind: 8mph
Humidity: 69%   Direction: 280°W
Pressure: 30.13"   Gusts: NA
Location:  42.3129°N, 84.0322°W
Report Text: KARB 271253Z AUTO 28007KT 10SM BKN027 OVC036 M02/M07 A3013 RMK AO2 SLP214 T10221072
Loading
Personal Weather Stations






























Interactive Weather Map New forecast layout! Learn more

10-Day Weather Forecast

Advertisements
Track Severe Weather on mobile